Aérodrome :
LOGIN :

S'inscrire | Disclaimer

   EN    FR    IT 

 










Légende :    VFR   VFR Marginal   IFR   IFR Intensif   IFR Très Intensif
Visi : 
Plafond : 
>= 8 km
>= 3000ft
5 à 8 km
1000 à 3000 ft
1500m à 5 km
500 à 1000 ft
800 à 1500m
200 à 500 ft
< 800m
< 200 ft
Symboles :   Orages  Brouillard  Fortes neiges  Fortes précipitations  Vent > 20 kt
SIGMETs :   Divers  Orages  Givrage  Turbulence  Onde Orograph.  Cendres Volcan.






- Altitude de l'aérodrome : 100 ft
- Code IATA : DCI


LIED - Decimomannu Air Base

DERNIER METAR :
  • 221655Z 25010KT 9999 FEW030 SCT050 27/20 Q1012 RMK BKN BKN200 VIS MIN 9999 WIND THR35 25010KT WIND THR17 25009KT BLU

METARs EXPIRÉS :
  • 221555Z 24011KT 9999 FEW030 SCT050 28/21 Q1012 RMK BKN BKN200 VIS MIN 9999 WIND THR35 25012KT WIND THR17 26011KT BLU

TAF TAF LIED
Valide du 22 à 18h jusqu'au 23 à 03h UTC


221700Z 2218/2303 32005KT 9999 FEW020



MET'MAP, la Météo Aéronautique d'un coup d'oeil ! - Copyright ORBIFLY Décembre 2007 - Disclaimer

ORBIFLY MET'MAP TEAM :

Programmation & Développement : Alexandra Zaïnal
Sur une idée originale de : Baudouin d'Aumeries
Assistance à la programmation : Marc-Olivier Méhu
Soutien technique & logistique : Manuel Goepfert

Contact : metmap@orbifly.com




SOURCES & CREDITS :

   NOAA